Airways and Terminal Forecast

Significant Meteorological Information

Terminal Aerodrome Forecast

TAF RPLL

 

152300Z 1600/1706 24007KT 9999 SCT023 BKN090 TX29/1606Z TN24/1622Z TEMPO 1600/1606 25012KT 6000 -RA SCT020 OVC090 TEMPO 1606/1612 23012KT 5000 TSRA FEW018CB SCT020 OVC080=

TAF RPVM

152300Z 1600/1706 23008KT 9999 FEW020 BKN250 TEMPO 1600/1606 22015KT FEW020 SCT100 OVC250 TEMPO 1606/1612 25012KT FEW018CB SCT020 BKN250=

TAF RPLC

152300Z 1600/1706 18010KT 7000 SCT020 BKN100 TX29/1606Z TN25/1622Z TEMPO 1600/1606 17014KT 5000 -TSRA FEW15CB SCT018 OVC090=

TAF RPLB

152300Z 1600/1624 21007KT 9999 SCT018 BKN080 TX29/1606Z TN24/1621Z TEMPO 1600/1606 24012G24KT 6000 TSRA FEW015CB SCT016 OVC070=

TAF RPLI

152300Z 1600/1624 33006KT 9999 FEW018 SCT100 TEMPO 1600/1606 36009KT FEW017CB SCT018 BKN090=

TAF RPVP

152300Z 1600/1624 21004KT 9999 FEW019 SCT080 BKN240 TEMPO 1600/1606 27010KT FEW019 BKN080 OVC240=

TAF RPVD

152300Z 1600/1624 22006KT 9999 FEW015 SCT070 BKN220 TEMPO 1600/1606 27012KT FEW014CB BKN070=

TAF RPMR

152300Z 1600/1624 18006KT 9999 FEW018 SCT080 BKN250 TEMPO 1600/1606 16012KT FEW018 BKN080=

TAF RPMD

152300Z 1600/1624 18006KT 9999 FEW016 SCT290 TEMPO 1600/1606 16010KT FEW015CB SCT090 BKN290=

TAF RPMZ

152300Z 1600/1624 16004KT 9999 FEW017 SCT090 BKN300 TEMPO 1600/1606 13008KT FEW016CB BKN090=


RPLL FORECAST TAKE-OFF CONDITION

TIME

(UTC)

WIND

(dddffKT)

TEMP

(°C)

QNH

(hPa)

TIME

(UTC)

WIND

(dddffKT)

TEMP

(°C)

QNH

(hPa)

0000

24004KT

27.0

1009.0

0400

24010KT

28.0

1007.0

0100

25006KT

28.0

1009.0

0500

23012KT

27.0

1006.0

0200

25008KT

29.0

1008.0

0600

22011KT

27.0

1006.0

0300

24010KT

28.0

1007.0

0700

23008KT

28.0

1007.0

 

ISSUED AT NAIA AMSS-WD/PAGASA-DOST FOR 2300UTC 15 SEPTEMBER 2019

PREPARED BY:  CHH                                                                                                            

CHECKED BY:   AYN